sensor_id;sensor_type;location;lat;lon;timestamp;P1;durP1;ratioP1;P2;durP2;ratioP2
22679;SDS011;11507;44.858;10.374;2023-06-14T00:01:57;16.45;;;11.55;;
22679;SDS011;11507;44.858;10.374;2023-06-14T00:04:23;15.35;;;11.05;;
22679;SDS011;11507;44.858;10.374;2023-06-14T00:06:50;17.90;;;12.32;;
22679;SDS011;11507;44.858;10.374;2023-06-14T00:09:16;18.33;;;11.95;;
22679;SDS011;11507;44.858;10.374;2023-06-14T00:11:45;20.40;;;12.98;;
22679;SDS011;11507;44.858;10.374;2023-06-14T00:14:11;17.77;;;11.60;;
22679;SDS011;11507;44.858;10.374;2023-06-14T00:16:36;20.70;;;13.52;;
22679;SDS011;11507;44.858;10.374;2023-06-14T00:19:03;32.38;;;13.57;;
22679;SDS011;11507;44.858;10.374;2023-06-14T00:21:30;21.00;;;12.50;;
22679;SDS011;11507;44.858;10.374;2023-06-14T00:24:00;20.88;;;12.90;;
22679;SDS011;11507;44.858;10.374;2023-06-14T00:26:26;19.73;;;12.00;;
22679;SDS011;11507;44.858;10.374;2023-06-14T00:28:53;23.70;;;13.70;;
22679;SDS011;11507;44.858;10.374;2023-06-14T00:31:19;23.40;;;12.82;;
22679;SDS011;11507;44.858;10.374;2023-06-14T00:33:46;19.27;;;13.23;;
22679;SDS011;11507;44.858;10.374;2023-06-14T00:36:12;19.92;;;13.32;;
22679;SDS011;11507;44.858;10.374;2023-06-14T00:38:38;22.55;;;13.30;;
22679;SDS011;11507;44.858;10.374;2023-06-14T00:41:04;20.98;;;14.13;;
22679;SDS011;11507;44.858;10.374;2023-06-14T00:43:30;25.10;;;14.73;;
22679;SDS011;11507;44.858;10.374;2023-06-14T00:45:56;22.58;;;14.48;;
22679;SDS011;11507;44.858;10.374;2023-06-14T00:48:22;26.02;;;15.18;;
22679;SDS011;11507;44.858;10.374;2023-06-14T00:50:49;24.75;;;14.07;;
22679;SDS011;11507;44.858;10.374;2023-06-14T00:53:16;21.35;;;13.50;;
22679;SDS011;11507;44.858;10.374;2023-06-14T00:55:44;23.60;;;14.05;;
22679;SDS011;11507;44.858;10.374;2023-06-14T00:58:10;27.95;;;15.43;;
22679;SDS011;11507;44.858;10.374;2023-06-14T01:00:36;24.45;;;14.55;;
22679;SDS011;11507;44.858;10.374;2023-06-14T01:03:02;25.80;;;15.10;;
22679;SDS011;11507;44.858;10.374;2023-06-14T01:05:28;28.38;;;15.68;;
22679;SDS011;11507;44.858;10.374;2023-06-14T01:15:50;25.20;;;13.18;;
22679;SDS011;11507;44.858;10.374;2023-06-14T01:18:18;21.55;;;13.60;;
22679;SDS011;11507;44.858;10.374;2023-06-14T01:20:44;22.42;;;13.35;;
22679;SDS011;11507;44.858;10.374;2023-06-14T01:23:15;21.40;;;14.45;;
22679;SDS011;11507;44.858;10.374;2023-06-14T01:25:44;27.13;;;14.85;;
22679;SDS011;11507;44.858;10.374;2023-06-14T01:28:12;23.88;;;14.73;;
22679;SDS011;11507;44.858;10.374;2023-06-14T01:30:42;27.10;;;15.93;;
22679;SDS011;11507;44.858;10.374;2023-06-14T01:33:20;21.17;;;13.73;;
22679;SDS011;11507;44.858;10.374;2023-06-14T01:35:49;23.70;;;14.27;;
22679;SDS011;11507;44.858;10.374;2023-06-14T01:38:17;23.55;;;14.88;;
22679;SDS011;11507;44.858;10.374;2023-06-14T01:40:46;22.05;;;14.73;;
22679;SDS011;11507;44.858;10.374;2023-06-14T01:43:13;22.02;;;14.38;;
22679;SDS011;11507;44.858;10.374;2023-06-14T01:45:41;29.60;;;15.85;;
22679;SDS011;11507;44.858;10.374;2023-06-14T01:48:08;24.08;;;14.57;;
22679;SDS011;11507;44.858;10.374;2023-06-14T01:50:34;28.55;;;14.82;;
22679;SDS011;11507;44.858;10.374;2023-06-14T01:53:03;27.48;;;15.73;;
22679;SDS011;11507;44.858;10.374;2023-06-14T01:55:36;28.08;;;14.98;;
22679;SDS011;11507;44.858;10.374;2023-06-14T01:58:05;26.15;;;15.75;;
22679;SDS011;11507;44.858;10.374;2023-06-14T02:00:32;24.30;;;14.25;;
22679;SDS011;11507;44.858;10.374;2023-06-14T02:02:58;23.42;;;14.50;;
22679;SDS011;11507;44.858;10.374;2023-06-14T02:05:25;23.40;;;14.27;;
22679;SDS011;11507;44.858;10.374;2023-06-14T02:07:51;22.27;;;14.05;;
22679;SDS011;11507;44.858;10.374;2023-06-14T02:10:18;23.25;;;13.05;;
22679;SDS011;11507;44.858;10.374;2023-06-14T02:12:46;24.25;;;13.63;;
22679;SDS011;11507;44.858;10.374;2023-06-14T02:15:12;22.90;;;13.73;;
22679;SDS011;11507;44.858;10.374;2023-06-14T02:17:44;25.83;;;13.52;;
22679;SDS011;11507;44.858;10.374;2023-06-14T02:20:12;27.95;;;15.15;;
22679;SDS011;11507;44.858;10.374;2023-06-14T02:22:39;21.63;;;12.98;;
22679;SDS011;11507;44.858;10.374;2023-06-14T02:25:06;20.83;;;12.23;;
22679;SDS011;11507;44.858;10.374;2023-06-14T02:27:33;21.33;;;12.95;;
22679;SDS011;11507;44.858;10.374;2023-06-14T02:29:59;17.95;;;11.98;;
22679;SDS011;11507;44.858;10.374;2023-06-14T02:32:27;26.23;;;13.20;;
22679;SDS011;11507;44.858;10.374;2023-06-14T02:34:53;23.90;;;12.98;;
22679;SDS011;11507;44.858;10.374;2023-06-14T02:37:19;19.10;;;12.23;;
22679;SDS011;11507;44.858;10.374;2023-06-14T02:39:46;20.60;;;12.05;;
22679;SDS011;11507;44.858;10.374;2023-06-14T02:42:11;24.73;;;13.00;;
22679;SDS011;11507;44.858;10.374;2023-06-14T02:44:37;19.77;;;12.55;;
22679;SDS011;11507;44.858;10.374;2023-06-14T02:47:03;22.63;;;13.13;;
22679;SDS011;11507;44.858;10.374;2023-06-14T02:49:30;19.52;;;12.57;;
22679;SDS011;11507;44.858;10.374;2023-06-14T02:51:56;20.23;;;12.00;;
22679;SDS011;11507;44.858;10.374;2023-06-14T02:54:22;21.77;;;12.10;;
22679;SDS011;11507;44.858;10.374;2023-06-14T02:56:48;18.73;;;12.02;;
22679;SDS011;11507;44.858;10.374;2023-06-14T02:59:14;19.40;;;10.98;;
22679;SDS011;11507;44.858;10.374;2023-06-14T03:01:40;19.05;;;12.23;;
22679;SDS011;11507;44.858;10.374;2023-06-14T03:04:10;20.10;;;12.10;;
22679;SDS011;11507;44.858;10.374;2023-06-14T03:06:38;16.27;;;10.63;;
22679;SDS011;11507;44.858;10.374;2023-06-14T03:09:05;14.50;;;9.35;;
22679;SDS011;11507;44.858;10.374;2023-06-14T03:11:34;19.55;;;10.80;;
22679;SDS011;11507;44.858;10.374;2023-06-14T03:14:01;19.35;;;10.70;;
22679;SDS011;11507;44.858;10.374;2023-06-14T03:16:29;16.15;;;9.50;;
22679;SDS011;11507;44.858;10.374;2023-06-14T03:18:57;18.60;;;10.77;;
22679;SDS011;11507;44.858;10.374;2023-06-14T03:21:25;16.10;;;9.23;;
22679;SDS011;11507;44.858;10.374;2023-06-14T03:23:55;17.42;;;9.63;;
22679;SDS011;11507;44.858;10.374;2023-06-14T03:26:21;17.13;;;9.45;;
22679;SDS011;11507;44.858;10.374;2023-06-14T03:28:50;15.38;;;9.38;;
22679;SDS011;11507;44.858;10.374;2023-06-14T03:31:17;17.58;;;9.60;;
22679;SDS011;11507;44.858;10.374;2023-06-14T03:33:44;17.45;;;9.85;;
22679;SDS011;11507;44.858;10.374;2023-06-14T03:36:11;14.43;;;9.00;;
22679;SDS011;11507;44.858;10.374;2023-06-14T03:38:37;16.27;;;8.85;;
22679;SDS011;11507;44.858;10.374;2023-06-14T03:41:05;14.35;;;8.43;;
22679;SDS011;11507;44.858;10.374;2023-06-14T03:43:31;18.63;;;9.23;;
22679;SDS011;11507;44.858;10.374;2023-06-14T03:45:59;16.08;;;9.00;;
22679;SDS011;11507;44.858;10.374;2023-06-14T03:48:27;16.02;;;8.88;;
22679;SDS011;11507;44.858;10.374;2023-06-14T03:50:52;15.27;;;9.32;;
22679;SDS011;11507;44.858;10.374;2023-06-14T03:53:20;17.35;;;11.38;;
22679;SDS011;11507;44.858;10.374;2023-06-14T03:55:49;24.90;;;12.50;;
22679;SDS011;11507;44.858;10.374;2023-06-14T03:58:19;23.85;;;13.07;;
22679;SDS011;11507;44.858;10.374;2023-06-14T04:00:45;18.27;;;11.60;;
22679;SDS011;11507;44.858;10.374;2023-06-14T04:03:11;16.48;;;9.77;;
22679;SDS011;11507;44.858;10.374;2023-06-14T04:05:39;17.52;;;9.20;;
22679;SDS011;11507;44.858;10.374;2023-06-14T04:08:08;16.17;;;9.57;;
22679;SDS011;11507;44.858;10.374;2023-06-14T04:10:34;17.90;;;10.90;;
22679;SDS011;11507;44.858;10.374;2023-06-14T04:13:01;17.70;;;11.57;;
22679;SDS011;11507;44.858;10.374;2023-06-14T04:15:26;19.83;;;11.70;;
22679;SDS011;11507;44.858;10.374;2023-06-14T04:17:56;24.42;;;12.60;;
22679;SDS011;11507;44.858;10.374;2023-06-14T04:20:23;26.63;;;14.52;;
22679;SDS011;11507;44.858;10.374;2023-06-14T04:22:50;22.00;;;13.98;;
22679;SDS011;11507;44.858;10.374;2023-06-14T04:25:17;27.52;;;14.05;;
22679;SDS011;11507;44.858;10.374;2023-06-14T04:27:43;24.48;;;14.73;;
22679;SDS011;11507;44.858;10.374;2023-06-14T04:30:10;29.60;;;14.43;;
22679;SDS011;11507;44.858;10.374;2023-06-14T04:32:46;23.50;;;14.60;;
22679;SDS011;11507;44.858;10.374;2023-06-14T04:35:13;23.48;;;14.13;;
22679;SDS011;11507;44.858;10.374;2023-06-14T04:37:44;20.42;;;13.35;;
22679;SDS011;11507;44.858;10.374;2023-06-14T04:40:11;21.45;;;13.95;;
22679;SDS011;11507;44.858;10.374;2023-06-14T04:42:42;19.90;;;12.98;;
22679;SDS011;11507;44.858;10.374;2023-06-14T04:45:10;18.23;;;12.35;;
22679;SDS011;11507;44.858;10.374;2023-06-14T04:47:37;18.42;;;11.70;;
22679;SDS011;11507;44.858;10.374;2023-06-14T04:50:05;19.15;;;10.48;;
22679;SDS011;11507;44.858;10.374;2023-06-14T04:52:31;18.65;;;10.75;;
22679;SDS011;11507;44.858;10.374;2023-06-14T04:54:59;15.18;;;10.40;;
22679;SDS011;11507;44.858;10.374;2023-06-14T04:57:26;17.13;;;10.93;;
22679;SDS011;11507;44.858;10.374;2023-06-14T04:59:56;17.65;;;11.40;;
22679;SDS011;11507;44.858;10.374;2023-06-14T05:02:24;21.67;;;12.15;;
22679;SDS011;11507;44.858;10.374;2023-06-14T05:04:51;19.40;;;12.63;;
22679;SDS011;11507;44.858;10.374;2023-06-14T05:07:21;18.52;;;12.77;;
22679;SDS011;11507;44.858;10.374;2023-06-14T05:09:50;18.25;;;12.60;;
22679;SDS011;11507;44.858;10.374;2023-06-14T05:12:16;16.50;;;11.88;;
22679;SDS011;11507;44.858;10.374;2023-06-14T05:14:44;20.85;;;12.82;;
22679;SDS011;11507;44.858;10.374;2023-06-14T05:17:11;16.67;;;11.43;;
22679;SDS011;11507;44.858;10.374;2023-06-14T05:19:38;17.35;;;12.13;;
22679;SDS011;11507;44.858;10.374;2023-06-14T05:22:05;20.17;;;12.60;;
22679;SDS011;11507;44.858;10.374;2023-06-14T05:24:31;20.10;;;13.35;;
22679;SDS011;11507;44.858;10.374;2023-06-14T05:26:57;24.15;;;13.63;;
22679;SDS011;11507;44.858;10.374;2023-06-14T05:29:23;20.02;;;12.07;;
22679;SDS011;11507;44.858;10.374;2023-06-14T05:31:51;20.63;;;12.82;;
22679;SDS011;11507;44.858;10.374;2023-06-14T05:34:17;17.95;;;12.45;;
22679;SDS011;11507;44.858;10.374;2023-06-14T05:36:46;18.48;;;12.77;;
22679;SDS011;11507;44.858;10.374;2023-06-14T05:39:12;18.55;;;12.45;;
22679;SDS011;11507;44.858;10.374;2023-06-14T05:41:38;21.10;;;13.90;;
22679;SDS011;11507;44.858;10.374;2023-06-14T05:44:04;22.30;;;13.02;;
22679;SDS011;11507;44.858;10.374;2023-06-14T05:46:31;20.33;;;13.30;;
22679;SDS011;11507;44.858;10.374;2023-06-14T05:48:57;20.65;;;14.02;;
22679;SDS011;11507;44.858;10.374;2023-06-14T05:51:24;20.55;;;13.10;;
22679;SDS011;11507;44.858;10.374;2023-06-14T05:53:51;21.83;;;14.23;;
22679;SDS011;11507;44.858;10.374;2023-06-14T05:56:18;19.77;;;13.15;;
22679;SDS011;11507;44.858;10.374;2023-06-14T05:58:45;18.27;;;13.32;;
22679;SDS011;11507;44.858;10.374;2023-06-14T06:01:11;19.67;;;14.20;;
22679;SDS011;11507;44.858;10.374;2023-06-14T06:03:39;20.08;;;13.18;;
22679;SDS011;11507;44.858;10.374;2023-06-14T06:06:05;17.92;;;12.43;;
22679;SDS011;11507;44.858;10.374;2023-06-14T06:08:31;17.02;;;11.88;;
22679;SDS011;11507;44.858;10.374;2023-06-14T06:10:58;22.75;;;12.95;;
22679;SDS011;11507;44.858;10.374;2023-06-14T06:13:25;20.25;;;13.07;;
22679;SDS011;11507;44.858;10.374;2023-06-14T06:15:51;21.30;;;13.90;;
22679;SDS011;11507;44.858;10.374;2023-06-14T06:18:17;17.85;;;12.23;;
22679;SDS011;11507;44.858;10.374;2023-06-14T06:20:43;19.25;;;12.32;;
22679;SDS011;11507;44.858;10.374;2023-06-14T06:23:12;15.75;;;11.35;;
22679;SDS011;11507;44.858;10.374;2023-06-14T06:25:39;15.90;;;11.63;;
22679;SDS011;11507;44.858;10.374;2023-06-14T06:28:05;20.95;;;13.52;;
22679;SDS011;11507;44.858;10.374;2023-06-14T06:30:31;20.15;;;12.88;;
22679;SDS011;11507;44.858;10.374;2023-06-14T06:32:57;20.73;;;13.45;;
22679;SDS011;11507;44.858;10.374;2023-06-14T06:35:23;20.42;;;13.73;;
22679;SDS011;11507;44.858;10.374;2023-06-14T06:37:50;21.27;;;14.68;;
22679;SDS011;11507;44.858;10.374;2023-06-14T06:40:15;26.02;;;15.65;;
22679;SDS011;11507;44.858;10.374;2023-06-14T06:42:41;21.50;;;14.50;;
22679;SDS011;11507;44.858;10.374;2023-06-14T06:45:11;18.70;;;12.90;;
22679;SDS011;11507;44.858;10.374;2023-06-14T06:47:36;22.17;;;15.65;;
22679;SDS011;11507;44.858;10.374;2023-06-14T06:50:02;22.50;;;15.80;;
22679;SDS011;11507;44.858;10.374;2023-06-14T06:52:28;22.27;;;15.00;;
22679;SDS011;11507;44.858;10.374;2023-06-14T06:54:54;24.08;;;15.93;;
22679;SDS011;11507;44.858;10.374;2023-06-14T06:57:21;23.27;;;15.60;;
22679;SDS011;11507;44.858;10.374;2023-06-14T06:59:50;23.70;;;15.20;;
22679;SDS011;11507;44.858;10.374;2023-06-14T07:02:17;23.17;;;16.80;;
22679;SDS011;11507;44.858;10.374;2023-06-14T07:04:43;27.05;;;15.50;;
22679;SDS011;11507;44.858;10.374;2023-06-14T07:07:10;22.70;;;15.73;;
22679;SDS011;11507;44.858;10.374;2023-06-14T07:09:36;28.70;;;15.93;;
22679;SDS011;11507;44.858;10.374;2023-06-14T07:12:03;23.52;;;14.77;;
22679;SDS011;11507;44.858;10.374;2023-06-14T07:14:29;29.35;;;16.17;;
22679;SDS011;11507;44.858;10.374;2023-06-14T07:16:55;23.45;;;16.23;;
22679;SDS011;11507;44.858;10.374;2023-06-14T07:19:25;24.15;;;16.13;;
22679;SDS011;11507;44.858;10.374;2023-06-14T07:21:51;22.70;;;15.80;;
22679;SDS011;11507;44.858;10.374;2023-06-14T07:24:19;25.73;;;16.73;;
22679;SDS011;11507;44.858;10.374;2023-06-14T07:26:47;23.33;;;14.80;;
22679;SDS011;11507;44.858;10.374;2023-06-14T07:29:14;23.75;;;17.27;;
22679;SDS011;11507;44.858;10.374;2023-06-14T07:31:42;25.30;;;18.10;;
22679;SDS011;11507;44.858;10.374;2023-06-14T07:34:10;25.42;;;18.85;;
22679;SDS011;11507;44.858;10.374;2023-06-14T07:36:37;26.13;;;18.65;;
22679;SDS011;11507;44.858;10.374;2023-06-14T07:39:04;23.75;;;18.58;;
22679;SDS011;11507;44.858;10.374;2023-06-14T07:41:31;25.23;;;18.50;;
22679;SDS011;11507;44.858;10.374;2023-06-14T07:43:58;25.50;;;19.40;;
22679;SDS011;11507;44.858;10.374;2023-06-14T07:46:26;25.65;;;19.00;;
22679;SDS011;11507;44.858;10.374;2023-06-14T07:48:52;25.10;;;18.45;;
22679;SDS011;11507;44.858;10.374;2023-06-14T07:51:18;29.63;;;21.48;;
22679;SDS011;11507;44.858;10.374;2023-06-14T07:53:44;29.27;;;21.83;;
22679;SDS011;11507;44.858;10.374;2023-06-14T07:56:17;26.90;;;20.92;;
22679;SDS011;11507;44.858;10.374;2023-06-14T07:58:43;26.77;;;21.05;;
22679;SDS011;11507;44.858;10.374;2023-06-14T08:01:10;27.13;;;20.88;;
22679;SDS011;11507;44.858;10.374;2023-06-14T08:03:36;29.67;;;21.75;;
22679;SDS011;11507;44.858;10.374;2023-06-14T08:06:02;27.25;;;20.73;;
22679;SDS011;11507;44.858;10.374;2023-06-14T08:08:29;25.05;;;20.38;;
22679;SDS011;11507;44.858;10.374;2023-06-14T08:10:57;30.23;;;20.85;;
22679;SDS011;11507;44.858;10.374;2023-06-14T08:13:23;29.55;;;22.30;;
22679;SDS011;11507;44.858;10.374;2023-06-14T08:15:50;28.08;;;22.25;;
22679;SDS011;11507;44.858;10.374;2023-06-14T08:18:17;31.25;;;23.05;;
22679;SDS011;11507;44.858;10.374;2023-06-14T08:20:43;30.02;;;23.92;;
22679;SDS011;11507;44.858;10.374;2023-06-14T08:23:09;27.42;;;22.55;;
22679;SDS011;11507;44.858;10.374;2023-06-14T08:25:35;30.73;;;24.15;;
22679;SDS011;11507;44.858;10.374;2023-06-14T08:28:01;32.17;;;21.67;;
22679;SDS011;11507;44.858;10.374;2023-06-14T08:30:28;26.98;;;21.27;;
22679;SDS011;11507;44.858;10.374;2023-06-14T08:32:53;28.83;;;21.77;;
22679;SDS011;11507;44.858;10.374;2023-06-14T08:35:22;27.13;;;19.85;;
22679;SDS011;11507;44.858;10.374;2023-06-14T08:37:48;30.58;;;22.45;;
22679;SDS011;11507;44.858;10.374;2023-06-14T08:40:20;29.80;;;22.38;;
22679;SDS011;11507;44.858;10.374;2023-06-14T08:42:53;27.65;;;20.75;;
22679;SDS011;11507;44.858;10.374;2023-06-14T08:45:23;25.67;;;19.48;;
22679;SDS011;11507;44.858;10.374;2023-06-14T08:47:50;30.23;;;22.70;;
22679;SDS011;11507;44.858;10.374;2023-06-14T08:50:29;28.30;;;21.88;;
22679;SDS011;11507;44.858;10.374;2023-06-14T08:53:01;26.02;;;20.17;;
22679;SDS011;11507;44.858;10.374;2023-06-14T08:55:32;25.48;;;20.35;;
22679;SDS011;11507;44.858;10.374;2023-06-14T08:57:58;23.60;;;19.60;;
22679;SDS011;11507;44.858;10.374;2023-06-14T09:00:27;23.63;;;20.35;;
22679;SDS011;11507;44.858;10.374;2023-06-14T09:02:53;26.17;;;20.85;;
22679;SDS011;11507;44.858;10.374;2023-06-14T09:05:26;25.90;;;20.13;;
22679;SDS011;11507;44.858;10.374;2023-06-14T09:07:54;24.45;;;19.55;;
22679;SDS011;11507;44.858;10.374;2023-06-14T09:12:55;22.63;;;19.77;;
22679;SDS011;11507;44.858;10.374;2023-06-14T09:15:23;22.00;;;17.65;;
22679;SDS011;11507;44.858;10.374;2023-06-14T09:17:49;22.67;;;17.48;;
22679;SDS011;11507;44.858;10.374;2023-06-14T09:20:19;22.73;;;18.27;;
22679;SDS011;11507;44.858;10.374;2023-06-14T09:22:45;21.75;;;16.92;;
22679;SDS011;11507;44.858;10.374;2023-06-14T09:25:14;25.75;;;18.13;;
22679;SDS011;11507;44.858;10.374;2023-06-14T09:27:45;18.85;;;16.50;;
22679;SDS011;11507;44.858;10.374;2023-06-14T09:30:13;17.88;;;15.32;;
22679;SDS011;11507;44.858;10.374;2023-06-14T09:32:46;18.00;;;15.13;;
22679;SDS011;11507;44.858;10.374;2023-06-14T09:35:14;18.73;;;15.30;;
22679;SDS011;11507;44.858;10.374;2023-06-14T09:37:44;19.52;;;16.35;;
22679;SDS011;11507;44.858;10.374;2023-06-14T09:40:23;19.75;;;14.57;;
22679;SDS011;11507;44.858;10.374;2023-06-14T09:42:51;19.75;;;16.52;;
22679;SDS011;11507;44.858;10.374;2023-06-14T09:45:21;17.67;;;15.05;;
22679;SDS011;11507;44.858;10.374;2023-06-14T09:47:50;17.25;;;13.48;;
22679;SDS011;11507;44.858;10.374;2023-06-14T09:50:18;19.17;;;16.02;;
22679;SDS011;11507;44.858;10.374;2023-06-14T09:52:50;16.60;;;13.75;;
22679;SDS011;11507;44.858;10.374;2023-06-14T09:55:24;18.88;;;15.02;;
22679;SDS011;11507;44.858;10.374;2023-06-14T09:57:54;16.75;;;14.65;;
22679;SDS011;11507;44.858;10.374;2023-06-14T10:00:22;15.13;;;13.27;;
22679;SDS011;11507;44.858;10.374;2023-06-14T10:02:54;17.95;;;14.57;;
22679;SDS011;11507;44.858;10.374;2023-06-14T10:05:24;17.45;;;15.02;;
22679;SDS011;11507;44.858;10.374;2023-06-14T10:08:00;18.42;;;15.23;;
22679;SDS011;11507;44.858;10.374;2023-06-14T10:10:33;22.15;;;16.63;;
22679;SDS011;11507;44.858;10.374;2023-06-14T10:13:00;19.20;;;15.32;;
22679;SDS011;11507;44.858;10.374;2023-06-14T10:24:08;21.35;;;15.35;;
22679;SDS011;11507;44.858;10.374;2023-06-14T10:27:01;16.00;;;13.90;;
22679;SDS011;11507;44.858;10.374;2023-06-14T10:29:27;15.57;;;12.80;;
22679;SDS011;11507;44.858;10.374;2023-06-14T10:31:58;16.58;;;13.88;;
22679;SDS011;11507;44.858;10.374;2023-06-14T10:34:26;17.45;;;13.23;;
22679;SDS011;11507;44.858;10.374;2023-06-14T10:37:03;17.77;;;15.10;;
22679;SDS011;11507;44.858;10.374;2023-06-14T10:39:38;17.30;;;14.65;;
22679;SDS011;11507;44.858;10.374;2023-06-14T10:42:07;16.50;;;13.25;;
22679;SDS011;11507;44.858;10.374;2023-06-14T10:44:34;18.63;;;13.15;;
22679;SDS011;11507;44.858;10.374;2023-06-14T10:47:09;17.40;;;13.88;;
22679;SDS011;11507;44.858;10.374;2023-06-14T10:49:50;15.18;;;12.50;;
22679;SDS011;11507;44.858;10.374;2023-06-14T10:52:21;13.90;;;11.20;;
22679;SDS011;11507;44.858;10.374;2023-06-14T10:55:14;15.68;;;10.25;;
22679;SDS011;11507;44.858;10.374;2023-06-14T10:57:43;14.20;;;11.65;;
22679;SDS011;11507;44.858;10.374;2023-06-14T11:00:11;11.60;;;9.75;;
22679;SDS011;11507;44.858;10.374;2023-06-14T11:02:51;13.88;;;9.98;;
22679;SDS011;11507;44.858;10.374;2023-06-14T11:11:23;12.68;;;10.05;;
22679;SDS011;11507;44.858;10.374;2023-06-14T11:13:58;11.43;;;9.05;;
22679;SDS011;11507;44.858;10.374;2023-06-14T11:16:28;11.73;;;9.32;;
22679;SDS011;11507;44.858;10.374;2023-06-14T11:18:55;13.10;;;10.52;;
22679;SDS011;11507;44.858;10.374;2023-06-14T11:21:21;12.45;;;10.23;;
22679;SDS011;11507;44.858;10.374;2023-06-14T11:23:51;11.18;;;9.32;;
22679;SDS011;11507;44.858;10.374;2023-06-14T11:26:27;10.02;;;8.68;;
22679;SDS011;11507;44.858;10.374;2023-06-14T11:28:55;14.05;;;11.63;;
22679;SDS011;11507;44.858;10.374;2023-06-14T11:31:22;14.00;;;9.18;;
22679;SDS011;11507;44.858;10.374;2023-06-14T11:33:50;10.63;;;8.98;;
22679;SDS011;11507;44.858;10.374;2023-06-14T11:36:18;11.30;;;8.68;;
22679;SDS011;11507;44.858;10.374;2023-06-14T11:38:46;10.18;;;8.05;;
22679;SDS011;11507;44.858;10.374;2023-06-14T11:41:12;10.95;;;8.80;;
22679;SDS011;11507;44.858;10.374;2023-06-14T11:43:39;12.75;;;9.63;;
22679;SDS011;11507;44.858;10.374;2023-06-14T11:46:16;10.02;;;8.55;;
22679;SDS011;11507;44.858;10.374;2023-06-14T11:48:47;10.25;;;8.23;;
22679;SDS011;11507;44.858;10.374;2023-06-14T11:51:15;12.75;;;8.73;;
22679;SDS011;11507;44.858;10.374;2023-06-14T11:53:42;9.77;;;7.80;;
22679;SDS011;11507;44.858;10.374;2023-06-14T11:56:09;10.20;;;7.22;;
22679;SDS011;11507;44.858;10.374;2023-06-14T11:58:35;10.63;;;7.40;;
22679;SDS011;11507;44.858;10.374;2023-06-14T12:01:05;9.73;;;8.10;;
22679;SDS011;11507;44.858;10.374;2023-06-14T12:08:33;8.38;;;5.60;;
22679;SDS011;11507;44.858;10.374;2023-06-14T12:11:14;8.02;;;5.40;;
22679;SDS011;11507;44.858;10.374;2023-06-14T12:13:44;7.90;;;5.18;;
22679;SDS011;11507;44.858;10.374;2023-06-14T12:16:12;6.50;;;5.13;;
22679;SDS011;11507;44.858;10.374;2023-06-14T12:18:38;7.80;;;6.07;;
22679;SDS011;11507;44.858;10.374;2023-06-14T12:21:09;8.82;;;6.07;;
22679;SDS011;11507;44.858;10.374;2023-06-14T12:26:18;8.93;;;6.60;;
22679;SDS011;11507;44.858;10.374;2023-06-14T12:28:45;8.13;;;7.28;;
22679;SDS011;11507;44.858;10.374;2023-06-14T12:31:14;7.28;;;5.97;;
22679;SDS011;11507;44.858;10.374;2023-06-14T12:33:42;8.80;;;6.63;;
22679;SDS011;11507;44.858;10.374;2023-06-14T12:36:08;8.68;;;6.00;;
22679;SDS011;11507;44.858;10.374;2023-06-14T12:38:36;9.73;;;6.72;;
22679;SDS011;11507;44.858;10.374;2023-06-14T12:41:03;8.30;;;6.85;;
22679;SDS011;11507;44.858;10.374;2023-06-14T12:43:29;11.80;;;8.45;;
22679;SDS011;11507;44.858;10.374;2023-06-14T12:45:56;9.65;;;8.25;;
22679;SDS011;11507;44.858;10.374;2023-06-14T12:48:22;12.32;;;8.75;;
22679;SDS011;11507;44.858;10.374;2023-06-14T12:50:49;12.35;;;9.93;;
22679;SDS011;11507;44.858;10.374;2023-06-14T12:53:15;10.18;;;8.30;;
22679;SDS011;11507;44.858;10.374;2023-06-14T12:55:42;11.50;;;8.70;;
22679;SDS011;11507;44.858;10.374;2023-06-14T12:58:08;11.75;;;8.90;;
22679;SDS011;11507;44.858;10.374;2023-06-14T13:00:36;8.55;;;6.20;;
22679;SDS011;11507;44.858;10.374;2023-06-14T13:03:04;7.18;;;5.47;;
22679;SDS011;11507;44.858;10.374;2023-06-14T13:05:31;7.03;;;4.70;;
22679;SDS011;11507;44.858;10.374;2023-06-14T13:08:00;6.00;;;5.00;;
22679;SDS011;11507;44.858;10.374;2023-06-14T13:10:27;5.10;;;4.53;;
22679;SDS011;11507;44.858;10.374;2023-06-14T13:12:54;7.68;;;5.32;;
22679;SDS011;11507;44.858;10.374;2023-06-14T13:15:23;9.20;;;5.15;;
22679;SDS011;11507;44.858;10.374;2023-06-14T13:17:49;5.55;;;4.38;;
22679;SDS011;11507;44.858;10.374;2023-06-14T13:20:15;8.70;;;4.85;;
22679;SDS011;11507;44.858;10.374;2023-06-14T13:22:42;8.02;;;5.00;;
22679;SDS011;11507;44.858;10.374;2023-06-14T13:25:11;7.00;;;4.50;;
22679;SDS011;11507;44.858;10.374;2023-06-14T13:27:37;8.52;;;4.85;;
22679;SDS011;11507;44.858;10.374;2023-06-14T13:30:03;8.75;;;5.25;;
22679;SDS011;11507;44.858;10.374;2023-06-14T13:32:31;6.45;;;4.60;;
22679;SDS011;11507;44.858;10.374;2023-06-14T13:34:57;8.85;;;5.35;;
22679;SDS011;11507;44.858;10.374;2023-06-14T13:37:23;7.05;;;4.80;;
22679;SDS011;11507;44.858;10.374;2023-06-14T13:39:52;9.43;;;4.68;;
22679;SDS011;11507;44.858;10.374;2023-06-14T13:42:17;6.35;;;4.75;;
22679;SDS011;11507;44.858;10.374;2023-06-14T13:44:46;6.78;;;4.38;;
22679;SDS011;11507;44.858;10.374;2023-06-14T13:47:14;8.02;;;4.63;;
22679;SDS011;11507;44.858;10.374;2023-06-14T13:49:42;8.90;;;5.22;;
22679;SDS011;11507;44.858;10.374;2023-06-14T13:52:08;7.22;;;5.22;;
22679;SDS011;11507;44.858;10.374;2023-06-14T13:54:34;7.65;;;5.05;;
22679;SDS011;11507;44.858;10.374;2023-06-14T13:57:05;6.30;;;5.20;;
22679;SDS011;11507;44.858;10.374;2023-06-14T13:59:36;6.35;;;4.70;;
22679;SDS011;11507;44.858;10.374;2023-06-14T14:02:03;7.97;;;4.45;;
22679;SDS011;11507;44.858;10.374;2023-06-14T14:04:31;10.98;;;5.13;;
22679;SDS011;11507;44.858;10.374;2023-06-14T14:06:57;7.20;;;4.60;;
22679;SDS011;11507;44.858;10.374;2023-06-14T14:09:27;6.60;;;4.97;;
22679;SDS011;11507;44.858;10.374;2023-06-14T14:11:54;7.18;;;5.28;;
22679;SDS011;11507;44.858;10.374;2023-06-14T14:14:23;8.48;;;5.38;;
22679;SDS011;11507;44.858;10.374;2023-06-14T14:16:50;7.55;;;4.82;;
22679;SDS011;11507;44.858;10.374;2023-06-14T14:19:18;7.75;;;5.50;;
22679;SDS011;11507;44.858;10.374;2023-06-14T14:21:44;9.27;;;4.88;;
22679;SDS011;11507;44.858;10.374;2023-06-14T14:26:41;6.65;;;5.00;;
22679;SDS011;11507;44.858;10.374;2023-06-14T14:29:08;6.15;;;5.05;;
22679;SDS011;11507;44.858;10.374;2023-06-14T14:31:36;6.45;;;5.05;;
22679;SDS011;11507;44.858;10.374;2023-06-14T14:34:02;8.15;;;5.15;;
22679;SDS011;11507;44.858;10.374;2023-06-14T14:36:30;9.35;;;5.50;;
22679;SDS011;11507;44.858;10.374;2023-06-14T14:38:59;6.68;;;5.20;;
22679;SDS011;11507;44.858;10.374;2023-06-14T14:41:25;7.22;;;5.57;;
22679;SDS011;11507;44.858;10.374;2023-06-14T14:43:53;6.03;;;5.00;;
22679;SDS011;11507;44.858;10.374;2023-06-14T14:46:19;9.20;;;5.43;;
22679;SDS011;11507;44.858;10.374;2023-06-14T14:48:45;6.60;;;5.30;;
22679;SDS011;11507;44.858;10.374;2023-06-14T14:51:13;8.40;;;5.15;;
22679;SDS011;11507;44.858;10.374;2023-06-14T14:53:39;7.50;;;4.97;;
22679;SDS011;11507;44.858;10.374;2023-06-14T14:56:07;5.93;;;5.00;;